METAR Data
IDs: Format: Raw Decoded Include TAF

Data at: 0514 UTC 24 Sep 2018

KLHQ 240453Z AUTO 08003KT 10SM FEW028 16/15 A3015 RMK AO2 SLP208 T01610150 402110122
KLHQ 240353Z AUTO 07003KT 10SM CLR 16/14 A3016 RMK AO2 SLP210 T01610144
KLHQ 240335Z AUTO 00000KT 10SM SCT020 16/14 A3016 RMK AO2 T01610144
KLHQ 240315Z AUTO 00000KT 10SM BKN020 16/14 A3016 RMK AO2 T01610144
KLHQ 240306Z AUTO 00000KT 10SM SCT021 17/14 A3016 RMK AO2 T01670144
KLHQ 240253Z AUTO 00000KT 10SM BKN021 BKN036 17/14 A3015 RMK AO2 SLP209 T01670144 50004
KLHQ 240153Z AUTO 07003KT 10SM FEW024 OVC037 17/14 A3015 RMK AO2 SLP209 T01670144
KLHQ 240053Z AUTO 08004KT 10SM BKN041 16/14 A3015 RMK AO2 SLP210 T01610144
KLHQ 232353Z AUTO 08004KT 10SM CLR 17/14 A3014 RMK AO2 SLP205 T01670144 10211 20167 50006
KLHQ 232253Z AUTO 09004KT 10SM CLR 18/14 A3014 RMK AO2 SLP205 T01830144
KLHQ 232153Z AUTO 04007KT 10SM FEW070 21/13 A3012 RMK AO2 SLP197 T02110133
KLHQ 232053Z AUTO 06007KT 10SM CLR 21/13 A3012 RMK AO2 SLP197 T02060133 56015
KLHQ 231953Z AUTO 07007KT 10SM CLR 19/13 A3013 RMK AO2 SLP201 T01890128
KLHQ 231853Z AUTO 03004KT 10SM CLR 18/13 A3015 RMK AO2 SLP207 T01830133
KLHQ 231753Z AUTO 04006KT 10SM CLR 18/13 A3017 RMK AO2 SLP213 T01830128 10183 20122 56005
KLHQ 231653Z AUTO 05005KT 10SM CLR 17/13 A3017 RMK AO2 SLP214 T01720128 $
KLHQ 231553Z AUTO 06004KT 10SM CLR 16/12 A3017 RMK AO2 SLP216 T01610122 $
KLHQ 231453Z AUTO 05004KT 10SM CLR 16/13 A3018 RMK AO2 SLP219 T01560128 51009 $
KLHQ 231353Z AUTO 06005KT 10SM CLR 14/13 A3018 RMK AO2 SLP218 T01440128 $
KLHQ 231253Z AUTO 10SM CLR 13/12 A3017 RMK AO2 SLP214 T01280122 $
KLHQ 231153Z AUTO 10SM CLR 12/12 A3016 RMK AO2 SLP210 70005 T01220117 10139 20122 53001 $
KLHQ 231053Z AUTO 00000KT 10SM CLR 12/12 A3015 RMK AO2 SLP208 T01220117 $
KLHQ 230953Z AUTO 10SM CLR 12/12 A3015 RMK AO2 SLP209 T01220117 $
KLHQ 230853Z AUTO 03003KT 10SM CLR 13/12 A3015 RMK AO2 SLP210 T01280122 56013 $
KLHQ 230753Z AUTO 10SM OVC065 13/12 A3015 RMK AO2 SLP209 T01330122 $
KLHQ 230653Z AUTO 00000KT 10SM OVC065 13/13 A3017 RMK AO2 SLP215 T01330128 $
KLHQ 230553Z AUTO 10SM OVC065 14/13 A3019 RMK AO2 SLP222 60000 T01390128 10144 20128 55006 $
KLHQ 230453Z AUTO 10SM CLR 13/13 A3019 RMK AO2 SLP221 T01280128 401940128 $
KLHQ 230353Z AUTO 00000KT 10SM FEW080 14/13 A3021 RMK AO2 SLP227 T01390133 $
KLHQ 230253Z AUTO 01004KT 10SM CLR 14/13 A3021 RMK AO2 SLP228 60000 T01390133 50002 $
KLHQ 230153Z AUTO 05003KT 10SM FEW120 14/14 A3021 RMK AO2 SLP230 T01440139 $
KLHQ 230053Z AUTO 07003KT 10SM FEW075 14/13 A3020 RMK AO2 RAE21 SLP226 P0000 T01440133 $
KLHQ 222353Z AUTO 00000KT 10SM -RA SCT120 14/13 A3020 RMK AO2 RAB01 SLP225 P0001 60005 T01440133 10178 20144 58000 $
KLHQ 222253Z AUTO 00000KT 10SM SCT120 14/13 A3021 RMK AO2 RAE52 SLP228 P0001 T01440133 $
KLHQ 222153Z AUTO 10003KT 10SM -RA BKN110 15/13 A3021 RMK AO2 SLP229 P0003 T01500133 $
KLHQ 222053Z AUTO 08008KT 10SM -RA OVC110 16/13 A3020 RMK AO2 RAB03 SLP226 P0000 60000 T01560128 56012 $
KLHQ 221953Z AUTO 04006KT 10SM OVC110 17/13 A3021 RMK AO2 RAB24E37 SLP227 P0000 T01670128 $
KLHQ 221853Z AUTO 03009KT 10SM SCT110 17/12 A3023 RMK AO2 SLP235 T01670122 $
KLHQ 221837Z AUTO 02008KT 10SM SCT025 17/12 A3024 RMK AO2 T01720122 $
KLHQ 221816Z AUTO 04009KT 10SM BKN025 17/12 A3024 RMK AO2 T01720122 $
KLHQ 221803Z AUTO 03009KT 10SM SCT025 17/12 A3024 RMK AO2 T01720122 $
KLHQ 221753Z AUTO 05007KT 10SM BKN025 17/13 A3024 RMK AO2 SLP236 T01720128 10178 20150 58002 $